Time;durP1;ratioP1;P1;durP2;ratioP2;P2;SDS_P1;SDS_P2;PMS_P1;PMS_P2;Temp;Humidity;BMP_temperature;BMP_pressure;BME280_temperature;BME280_humidity;BME280_pressure;Samples;Min_cycle;Max_cycle;Signal;HPM_P1;HPM_P2
2022/08/19 00:01:42;;;;;;;7.35;5.25;;;;;;;22.18;59.41;101242.34;5026217;28;20129;-61
2022/08/19 00:04:12;;;;;;;7.07;5.78;;;;;;;22.17;59.40;101244.28;5025741;28;20244;-61
2022/08/19 00:06:42;;;;;;;7.60;6.22;;;;;;;22.17;59.28;101241.53;5025734;28;20084;-61
2022/08/19 00:09:12;;;;;;;6.85;5.80;;;;;;;22.15;59.50;101253.88;5025633;28;20060;-61
2022/08/19 00:11:41;;;;;;;9.27;5.80;;;;;;;22.14;59.54;101253.06;5025928;28;20061;-61
2022/08/19 00:14:12;;;;;;;8.45;5.45;;;;;;;22.13;59.54;101251.44;5026046;28;20046;-61
2022/08/19 00:16:42;;;;;;;7.38;5.95;;;;;;;22.13;59.77;101245.16;5025735;28;20061;-62
2022/08/19 00:19:11;;;;;;;8.00;6.18;;;;;;;22.11;59.62;101245.44;5025415;28;20077;-61
2022/08/19 00:21:39;;;;;;;6.40;5.80;;;;;;;22.10;59.69;101249.28;5029840;28;20046;-61
2022/08/19 00:24:07;;;;;;;8.45;6.32;;;;;;;22.07;59.58;101249.84;5045562;28;20140;-61
2022/08/19 00:26:36;;;;;;;8.30;6.10;;;;;;;22.06;59.82;101251.78;5045593;28;20503;-61
2022/08/19 00:29:08;;;;;;;10.07;6.30;;;;;;;22.07;59.55;101252.59;5044722;28;20083;-61
2022/08/19 00:31:37;;;;;;;8.60;6.65;;;;;;;22.05;59.91;101263.03;5045548;28;20054;-61
2022/08/19 00:34:05;;;;;;;7.03;5.88;;;;;;;22.03;59.74;101255.09;5045004;28;20084;-61
2022/08/19 00:36:33;;;;;;;7.95;6.00;;;;;;;22.04;59.60;101258.66;5039845;28;20054;-61
2022/08/19 00:39:01;;;;;;;8.68;6.10;;;;;;;21.97;59.71;101253.47;5043932;28;20077;-61
2022/08/19 00:41:29;;;;;;;6.63;5.75;;;;;;;22.00;59.97;101254.81;5045315;28;20056;-61
2022/08/19 00:43:59;;;;;;;8.07;6.45;;;;;;;21.99;59.80;101256.75;5045297;28;20076;-61
2022/08/19 00:46:27;;;;;;;6.43;5.75;;;;;;;21.97;59.96;101258.13;5027877;28;20424;-61
2022/08/19 00:48:57;;;;;;;8.35;5.88;;;;;;;21.95;59.92;101258.41;5025148;28;20049;-61
2022/08/19 00:51:26;;;;;;;11.27;6.90;;;;;;;21.96;60.02;101259.25;5025725;28;20086;-61
2022/08/19 00:53:55;;;;;;;7.90;6.20;;;;;;;21.94;59.98;101261.44;5029154;28;20072;-61
2022/08/19 00:56:23;;;;;;;9.63;6.80;;;;;;;21.92;59.91;101260.91;5029081;28;20046;-62
2022/08/19 00:58:51;;;;;;;8.10;6.00;;;;;;;21.91;59.85;101254.63;5028903;28;20061;-61
2022/08/19 01:01:18;;;;;;;7.68;6.20;;;;;;;21.91;60.10;101254.63;5028807;28;20077;-61
2022/08/19 01:03:46;;;;;;;8.52;6.97;;;;;;;21.90;59.94;101253.00;5028491;28;20058;-61
2022/08/19 01:06:26;;;;;;;7.72;6.82;;;;;;;21.90;59.94;101254.91;5028686;28;20140;-61
2022/08/19 01:08:55;;;;;;;8.82;6.32;;;;;;;21.88;60.09;101255.22;5028482;28;20049;-61
2022/08/19 01:11:22;;;;;;;8.73;6.30;;;;;;;21.88;59.93;101251.66;5028961;28;20057;-61
2022/08/19 01:13:53;;;;;;;8.43;6.40;;;;;;;21.86;60.19;101249.19;5028670;28;20049;-61
2022/08/19 01:16:23;;;;;;;7.50;5.72;;;;;;;21.86;59.97;101251.13;5028579;28;20119;-61
2022/08/19 01:18:52;;;;;;;7.00;6.10;;;;;;;21.86;59.98;101245.66;5028595;28;20072;-61
2022/08/19 01:21:27;;;;;;;7.80;6.18;;;;;;;21.84;60.09;101242.38;5028601;28;20077;-61
2022/08/19 01:23:56;;;;;;;8.40;6.65;;;;;;;21.83;60.32;101240.75;5028448;28;20084;-61
2022/08/19 01:26:26;;;;;;;8.25;6.28;;;;;;;21.81;60.04;101237.50;5028189;28;20088;-62
2022/08/19 01:28:57;;;;;;;7.43;5.82;;;;;;;21.81;60.39;101240.22;5028326;28;20522;-61
2022/08/19 01:31:30;;;;;;;8.23;6.63;;;;;;;21.79;60.41;101250.63;5028434;28;20054;-61
2022/08/19 01:34:00;;;;;;;8.85;7.07;;;;;;;21.77;60.48;101249.00;5028131;28;20046;-61
2022/08/19 01:36:31;;;;;;;12.13;6.75;;;;;;;21.76;60.40;101252.84;5028258;28;20046;-61
2022/08/19 01:39:01;;;;;;;8.77;6.20;;;;;;;21.75;60.40;101253.94;5028160;28;20060;-60
2022/08/19 01:41:29;;;;;;;9.35;6.80;;;;;;;21.74;60.40;101248.75;5028311;28;20049;-60
2022/08/19 01:43:57;;;;;;;11.20;7.13;;;;;;;21.72;60.56;101251.78;5028177;28;20111;-61
2022/08/19 01:46:44;;;;;;;8.57;6.68;;;;;;;21.73;60.56;101245.22;5027684;28;20050;-61
2022/08/19 01:49:12;;;;;;;10.38;6.10;;;;;;;21.71;60.58;101250.16;5045173;28;20068;-61
2022/08/19 01:51:40;;;;;;;7.90;6.18;;;;;;;21.70;60.58;101250.44;5047877;28;20073;-61
2022/08/19 01:54:11;;;;;;;8.55;6.18;;;;;;;21.69;60.45;101254.28;5046513;28;20053;-61
2022/08/19 01:56:39;;;;;;;9.38;6.50;;;;;;;21.68;60.62;101253.47;5027676;28;20045;-61
2022/08/19 01:59:11;;;;;;;8.90;5.95;;;;;;;21.67;60.50;101251.00;5027821;28;20112;-61
2022/08/19 02:01:39;;;;;;;8.00;6.28;;;;;;;21.64;60.50;101255.13;5027779;28;20065;-61
2022/08/19 02:04:07;;;;;;;8.10;6.38;;;;;;;21.64;60.59;101255.13;5026305;28;20681;-61
2022/08/19 02:06:35;;;;;;;8.32;6.75;;;;;;;21.64;60.40;101270.72;5027311;28;20046;-61
2022/08/19 02:09:06;;;;;;;8.60;6.57;;;;;;;21.63;60.37;101266.34;5027711;28;20053;-61
2022/08/19 02:11:37;;;;;;;9.50;6.60;;;;;;;21.62;60.48;101268.28;5027646;28;20057;-60
2022/08/19 02:14:07;;;;;;;11.20;6.28;;;;;;;21.60;60.42;101273.22;5027550;28;20046;-60
2022/08/19 02:16:36;;;;;;;9.85;6.32;;;;;;;21.59;60.33;101277.06;5027578;28;20085;-60
2022/08/19 02:19:04;;;;;;;10.32;6.65;;;;;;;21.58;60.28;101282.81;5026937;28;20057;-60
2022/08/19 02:21:33;;;;;;;12.52;6.55;;;;;;;21.57;60.26;101272.97;5027544;28;20084;-60
2022/08/19 02:24:01;;;;;;;8.73;6.43;;;;;;;21.53;60.53;101270.00;5027303;28;20077;-60
2022/08/19 02:26:29;;;;;;;9.77;6.72;;;;;;;21.55;60.47;101269.69;5027469;28;20054;-60
2022/08/19 02:28:58;;;;;;;10.88;7.15;;;;;;;21.54;60.30;101279.00;5027124;28;20088;-61
2022/08/19 02:31:28;;;;;;;8.23;6.32;;;;;;;21.52;60.25;101283.94;5037873;28;20052;-61
2022/08/19 02:33:57;;;;;;;8.63;6.75;;;;;;;21.51;60.33;101285.03;5046515;28;20045;-61
2022/08/19 02:36:25;;;;;;;9.25;6.20;;;;;;;21.50;60.28;101277.94;5047009;28;20080;-61
2022/08/19 02:38:53;;;;;;;10.73;7.43;;;;;;;21.50;60.22;101284.22;5045463;28;20080;-61
2022/08/19 02:41:25;;;;;;;9.18;6.32;;;;;;;21.48;60.22;101286.44;5047060;28;20049;-61
2022/08/19 02:43:54;;;;;;;9.30;6.47;;;;;;;21.46;60.22;101294.09;5046962;28;20053;-60
2022/08/19 02:46:44;;;;;;;8.80;6.38;;;;;;;21.45;60.15;101289.72;5046337;28;20049;-61
2022/08/19 02:49:14;;;;;;;10.35;6.47;;;;;;;21.44;60.16;101297.13;5028843;28;20054;-61
2022/08/19 02:51:44;;;;;;;9.70;6.82;;;;;;;21.42;60.26;101293.84;5026865;28;20054;-61
2022/08/19 02:54:13;;;;;;;8.20;6.20;;;;;;;21.42;60.21;101293.84;5033742;28;20091;-61
2022/08/19 02:56:42;;;;;;;9.10;6.78;;;;;;;21.41;60.20;101288.66;5046473;28;20042;-61
2022/08/19 02:59:11;;;;;;;8.75;6.85;;;;;;;21.40;60.14;101292.50;5046528;28;20077;-60
2022/08/19 03:01:41;;;;;;;8.35;6.95;;;;;;;21.39;60.32;101286.22;5031630;28;20045;-61
2022/08/19 03:04:13;;;;;;;12.23;6.95;;;;;;;21.36;60.31;101284.06;5026268;28;20054;-61
2022/08/19 03:06:43;;;;;;;11.23;7.03;;;;;;;21.36;60.11;101278.56;5026391;28;20112;-61
2022/08/19 03:09:11;;;;;;;8.75;6.22;;;;;;;21.35;60.14;101278.88;5026653;28;20073;-61
2022/08/19 03:11:39;;;;;;;8.45;6.43;;;;;;;21.35;60.10;101281.59;5026644;28;20054;-61
2022/08/19 03:14:08;;;;;;;10.63;6.35;;;;;;;21.33;60.24;101281.88;5026326;28;20085;-61
2022/08/19 03:16:42;;;;;;;9.77;6.90;;;;;;;21.32;60.20;101282.97;5026286;28;20080;-61
2022/08/19 03:19:12;;;;;;;11.90;7.55;;;;;;;21.31;60.27;101286.81;5026035;28;20056;-61
2022/08/19 03:21:39;;;;;;;9.63;7.15;;;;;;;21.31;60.13;101292.28;5026354;28;20073;-61
2022/08/19 03:24:09;;;;;;;8.43;6.60;;;;;;;21.30;60.22;101287.09;5026531;28;20085;-61
2022/08/19 03:26:40;;;;;;;8.45;7.55;;;;;;;21.28;60.21;101284.66;5026207;28;20088;-61
2022/08/19 03:29:10;;;;;;;10.25;7.70;;;;;;;21.27;60.06;101287.66;5026213;28;20081;-61
2022/08/19 03:31:42;;;;;;;10.23;6.93;;;;;;;21.27;60.07;101291.22;5026454;28;20050;-61
2022/08/19 03:34:26;;;;;;;8.52;7.47;;;;;;;21.26;60.18;101295.03;5025926;28;20050;-61
2022/08/19 03:36:55;;;;;;;10.48;7.75;;;;;;;21.25;60.15;101292.59;5026362;28;20045;-61
2022/08/19 03:39:24;;;;;;;10.80;8.23;;;;;;;21.24;60.20;101277.28;5025803;28;20052;-61
2022/08/19 03:41:56;;;;;;;11.52;8.38;;;;;;;21.17;60.21;101263.09;5026339;28;20078;-61
2022/08/19 03:44:45;;;;;;;11.70;8.27;;;;;;;21.19;60.19;101272.63;5026202;28;20057;-61
2022/08/19 03:47:15;;;;;;;9.60;8.48;;;;;;;21.20;60.17;101278.91;5025989;28;20041;-61
2022/08/19 03:49:45;;;;;;;9.85;7.43;;;;;;;21.19;60.30;101280.84;5025711;28;20104;-61
2022/08/19 03:52:13;;;;;;;9.30;8.20;;;;;;;21.19;60.16;101269.09;5026115;28;20100;-61
2022/08/19 03:54:41;;;;;;;14.52;8.52;;;;;;;21.17;60.16;101277.56;5032645;28;20050;-61
2022/08/19 04:00:50;;;;;;;11.07;8.65;;;;;;;21.14;60.21;101286.34;5037160;28;20095;-61
2022/08/19 04:03:18;;;;;;;9.48;8.35;;;;;;;21.13;60.28;101281.97;5025698;28;20120;-61
2022/08/19 04:05:48;;;;;;;10.52;8.43;;;;;;;21.11;60.08;101293.19;5025764;28;20046;-61
2022/08/19 04:08:20;;;;;;;12.32;9.45;;;;;;;21.12;60.34;101288.53;5025853;28;20511;-61
2022/08/19 04:10:48;;;;;;;14.60;10.02;;;;;;;21.09;60.22;101276.25;5026016;28;20057;-60
2022/08/19 04:13:18;;;;;;;11.02;9.55;;;;;;;21.08;60.30;101271.06;5025894;28;20052;-61
2022/08/19 04:15:47;;;;;;;12.45;9.80;;;;;;;21.05;60.20;101271.63;5025835;28;20100;-61
2022/08/19 04:18:15;;;;;;;11.65;10.15;;;;;;;21.06;60.27;101278.72;5025297;28;20072;-61
2022/08/19 04:20:44;;;;;;;11.30;9.45;;;;;;;21.05;60.25;101282.56;5025796;28;20073;-61
2022/08/19 04:23:14;;;;;;;12.93;10.60;;;;;;;21.04;60.29;101280.91;5032650;28;20053;-61
2022/08/19 04:25:45;;;;;;;12.10;9.63;;;;;;;21.03;60.33;101273.81;5045547;28;20049;-61
2022/08/19 04:28:13;;;;;;;12.30;10.18;;;;;;;21.02;60.17;101274.91;5048029;28;20112;-61
2022/08/19 04:30:43;;;;;;;12.80;9.93;;;;;;;21.01;60.19;101276.84;5047645;28;20081;-61
2022/08/19 04:33:11;;;;;;;11.45;9.57;;;;;;;20.92;60.13;101262.13;5048309;28;20053;-62
2022/08/19 04:35:41;;;;;;;13.90;10.63;;;;;;;20.99;60.12;101268.09;5047835;28;20081;-61
2022/08/19 04:38:10;;;;;;;12.93;9.98;;;;;;;20.97;60.24;101269.47;5029255;28;20072;-61
2022/08/19 04:43:28;;;;;;;16.00;11.98;;;;;;;20.95;60.14;101266.22;5044093;28;20042;-60
2022/08/19 04:45:56;;;;;;;12.73;11.05;;;;;;;20.94;60.11;101265.41;5029240;28;20054;-60
2022/08/19 04:48:27;;;;;;;14.73;10.82;;;;;;;20.93;60.10;101271.97;5028652;28;20408;-60
2022/08/19 04:50:58;;;;;;;15.30;11.38;;;;;;;20.94;60.06;101272.78;5032195;28;20072;-61
2022/08/19 04:53:28;;;;;;;12.60;10.35;;;;;;;20.92;60.09;101278.53;5048933;28;20060;-60
2022/08/19 04:55:58;;;;;;;17.23;11.82;;;;;;;20.86;60.22;101270.63;5048893;28;20088;-60
2022/08/19 04:58:27;;;;;;;16.02;11.00;;;;;;;20.90;60.23;101288.09;5047581;28;20092;-60
2022/08/19 05:00:55;;;;;;;18.65;12.23;;;;;;;20.90;59.96;101291.63;5048854;28;20056;-60
2022/08/19 05:03:23;;;;;;;16.38;12.45;;;;;;;20.90;60.12;101297.09;5047237;28;20052;-60
2022/08/19 05:05:56;;;;;;;16.40;12.15;;;;;;;20.88;60.01;101296.56;5048619;28;20061;-60
2022/08/19 05:08:24;;;;;;;15.35;12.40;;;;;;;20.88;60.08;101295.75;5048163;28;20049;-60
2022/08/19 05:11:01;;;;;;;15.70;11.77;;;;;;;20.84;59.99;101300.97;5037132;28;20074;-60
2022/08/19 05:13:29;;;;;;;16.63;12.60;;;;;;;20.87;60.19;101305.03;5028582;28;20084;-60
2022/08/19 05:15:59;;;;;;;16.55;11.95;;;;;;;20.85;60.16;101308.06;5028934;28;20057;-60
2022/08/19 05:24:01;;;;;;;17.73;13.15;;;;;;;20.83;60.12;101320.34;5028516;28;20053;-60
2022/08/19 05:26:30;;;;;;;16.27;12.68;;;;;;;20.81;60.20;101320.63;5028481;28;20064;-60
2022/08/19 05:28:57;;;;;;;17.30;12.90;;;;;;;20.83;60.46;101334.03;5035433;28;20077;-60
2022/08/19 05:31:27;;;;;;;16.77;12.48;;;;;;;20.82;60.10;101333.19;5048258;28;20503;-60
2022/08/19 05:33:55;;;;;;;17.50;14.02;;;;;;;20.81;60.19;101334.31;5047624;28;20522;-60
2022/08/19 05:36:23;;;;;;;19.38;13.50;;;;;;;20.80;60.13;101340.88;5048255;28;20104;-60
2022/08/19 05:38:52;;;;;;;16.80;13.32;;;;;;;20.81;60.21;101342.50;5028451;28;20100;-60
2022/08/19 05:41:29;;;;;;;19.10;13.45;;;;;;;20.80;60.13;101340.88;5028407;28;20092;-60
2022/08/19 05:43:58;;;;;;;19.77;14.93;;;;;;;20.77;60.13;101339.53;5027905;28;20492;-61
2022/08/19 05:46:26;;;;;;;16.88;13.85;;;;;;;20.79;60.21;101342.00;5028176;28;20050;-60
2022/08/19 05:48:56;;;;;;;17.20;13.45;;;;;;;20.78;60.23;101348.53;5027564;28;20056;-62
2022/08/19 05:51:24;;;;;;;17.75;14.88;;;;;;;20.77;60.25;101347.72;5028363;28;20165;-60
2022/08/19 05:53:56;;;;;;;16.73;13.88;;;;;;;20.77;60.31;101342.25;5027982;28;20053;-59
2022/08/19 05:56:23;;;;;;;22.50;15.50;;;;;;;20.75;60.39;101336.25;5027891;28;20480;-60
2022/08/19 05:58:52;;;;;;;18.50;14.75;;;;;;;20.75;60.18;101330.78;5027638;28;20147;-59
2022/08/19 06:01:21;;;;;;;19.48;15.57;;;;;;;20.74;60.37;101331.06;5027855;28;20049;-60
2022/08/19 06:03:49;;;;;;;16.95;14.27;;;;;;;20.74;60.42;101331.06;5027697;28;20085;-62
2022/08/19 06:06:17;;;;;;;18.92;15.32;;;;;;;20.73;60.29;101333.00;5027661;28;20086;-61
2022/08/19 06:08:50;;;;;;;21.60;15.07;;;;;;;20.72;60.42;101322.34;5027261;28;20053;-61
2022/08/19 06:11:23;;;;;;;18.73;14.07;;;;;;;20.72;60.35;101328.63;5038350;28;20081;-61
2022/08/19 06:13:54;;;;;;;19.58;14.88;;;;;;;20.73;60.44;101321.25;5047347;28;20058;-61
2022/08/19 06:16:31;;;;;;;21.38;16.58;;;;;;;20.72;60.49;101323.16;5047207;28;20045;-60
2022/08/19 06:19:01;;;;;;;17.35;13.77;;;;;;;20.73;60.50;101323.97;5035439;28;20046;-61
2022/08/19 06:21:31;;;;;;;20.40;14.18;;;;;;;20.74;60.40;101333.81;5027474;28;20061;-61
2022/08/19 06:23:59;;;;;;;19.30;14.82;;;;;;;20.73;60.41;101323.97;5027128;28;20408;-61
2022/08/19 06:26:27;;;;;;;18.98;14.13;;;;;;;20.74;60.41;101325.63;5027690;28;20493;-61
2022/08/19 06:28:55;;;;;;;21.30;15.35;;;;;;;20.74;60.30;101323.69;5026922;28;20074;-61
2022/08/19 06:31:33;;;;;;;17.35;13.18;;;;;;;20.76;60.38;101324.25;5027202;28;20054;-61
2022/08/19 06:34:02;;;;;;;18.73;13.45;;;;;;;20.79;60.32;101322.88;5027025;28;20050;-61
2022/08/19 06:36:33;;;;;;;18.67;13.55;;;;;;;20.79;60.39;101315.47;5027211;28;20058;-61
2022/08/19 06:39:03;;;;;;;17.52;13.38;;;;;;;20.80;60.47;101321.75;5026798;28;20057;-60
2022/08/19 06:41:31;;;;;;;19.10;13.15;;;;;;;20.83;60.25;101325.81;5027029;28;20054;-61
2022/08/19 06:43:59;;;;;;;18.67;13.02;;;;;;;20.85;60.30;101329.09;5027101;28;20057;-61
2022/08/19 06:46:28;;;;;;;17.65;12.80;;;;;;;20.87;60.25;101321.44;5026819;28;20061;-61
2022/08/19 06:49:00;;;;;;;16.83;11.88;;;;;;;20.88;60.39;101323.88;5026045;28;20060;-61
2022/08/19 06:51:28;;;;;;;15.32;12.02;;;;;;;20.89;60.33;101324.72;5026578;28;20052;-61
2022/08/19 06:53:58;;;;;;;15.82;11.82;;;;;;;20.90;60.36;101327.16;5040922;28;20384;-61
2022/08/19 06:56:33;;;;;;;16.08;12.32;;;;;;;20.92;60.46;101316.78;5046702;28;20065;-61
2022/08/19 06:59:02;;;;;;;16.40;12.48;;;;;;;20.93;60.47;101323.06;5036241;28;20249;-61
2022/08/19 07:01:37;;;;;;;17.27;12.25;;;;;;;20.95;60.43;101324.41;5026785;28;20120;-60
2022/08/19 07:04:06;;;;;;;16.90;11.98;;;;;;;20.93;60.71;101318.41;5026085;28;20065;-61
2022/08/19 07:06:38;;;;;;;16.25;12.30;;;;;;;20.97;60.55;101322.22;5026753;28;20050;-60
2022/08/19 07:09:13;;;;;;;17.15;11.85;;;;;;;20.98;60.83;101321.13;5026406;28;20250;-61
2022/08/19 07:11:46;;;;;;;18.85;12.07;;;;;;;20.99;60.73;101328.22;5026580;28;20058;-60
2022/08/19 07:14:17;;;;;;;16.77;12.43;;;;;;;21.00;60.87;101326.31;5029600;28;20052;-60
2022/08/19 07:16:51;;;;;;;17.08;11.52;;;;;;;21.01;60.81;101327.94;5046036;28;20088;-60
2022/08/19 07:19:19;;;;;;;14.63;10.93;;;;;;;21.00;60.90;101335.31;5045647;28;20411;-60
2022/08/19 07:21:48;;;;;;;15.77;10.90;;;;;;;21.00;60.65;101335.31;5033608;28;20046;-60
2022/08/19 07:24:18;;;;;;;16.42;10.90;;;;;;;21.02;60.81;101345.97;5026262;28;20054;-60
2022/08/19 07:26:46;;;;;;;15.50;10.85;;;;;;;20.99;60.84;101341.88;5026292;28;20058;-60
2022/08/19 07:29:19;;;;;;;17.08;11.98;;;;;;;20.97;61.03;101337.78;5026124;28;20042;-61
2022/08/19 07:31:55;;;;;;;19.58;10.82;;;;;;;21.00;60.87;101345.44;5026098;28;20070;-60
2022/08/19 07:34:25;;;;;;;19.40;11.27;;;;;;;21.01;61.01;101347.06;5026015;28;20053;-61
2022/08/19 07:36:53;;;;;;;15.00;10.00;;;;;;;20.99;61.04;101346.53;5026222;28;20053;-60
2022/08/19 07:39:24;;;;;;;15.98;10.48;;;;;;;20.99;61.09;101341.06;5025759;28;20049;-60
2022/08/19 07:41:53;;;;;;;15.13;10.18;;;;;;;20.99;61.25;101349.25;5029879;28;20132;-60
2022/08/19 07:44:21;;;;;;;16.33;9.70;;;;;;;20.99;61.34;101346.53;5045831;28;20057;-60
2022/08/19 07:46:53;;;;;;;14.15;10.18;;;;;;;20.98;61.49;101353.09;5041546;28;20222;-60
2022/08/19 07:49:22;;;;;;;17.10;11.00;;;;;;;20.98;61.49;101359.38;5025513;28;20084;-60
2022/08/19 07:51:52;;;;;;;16.15;10.68;;;;;;;20.99;61.49;101368.41;5025823;28;20231;-60
2022/08/19 07:54:21;;;;;;;18.85;11.00;;;;;;;20.96;61.74;101356.09;5026134;28;20077;-60
2022/08/19 07:56:50;;;;;;;13.13;10.07;;;;;;;20.99;61.68;101371.13;5025907;28;20073;-60
2022/08/19 07:59:20;;;;;;;13.52;10.48;;;;;;;20.98;61.69;101364.03;5025923;28;20050;-60
2022/08/19 08:01:49;;;;;;;17.38;11.13;;;;;;;20.99;61.88;101371.13;5028243;28;20046;-61
2022/08/19 08:09:50;;;;;;;16.80;10.10;;;;;;;21.01;62.02;101375.22;5005178;28;20109;-61
2022/08/19 08:12:22;;;;;;;15.20;11.23;;;;;;;21.03;62.07;101377.69;5029907;28;20120;-60
2022/08/19 08:15:08;;;;;;;16.08;11.25;;;;;;;21.02;62.13;101379.59;5029955;28;20065;-61
2022/08/19 08:17:40;;;;;;;18.00;11.18;;;;;;;21.03;62.18;101377.69;5029598;28;20050;-60
2022/08/19 08:20:20;;;;;;;19.00;13.07;;;;;;;21.04;62.04;101377.41;5029566;28;20507;-61
2022/08/19 08:25:35;;;;;;;20.15;13.00;;;;;;;21.04;62.31;101384.78;5029596;28;20049;-61
2022/08/19 08:28:04;;;;;;;18.55;12.88;;;;;;;21.04;62.43;101385.59;5029367;28;20054;-60
2022/08/19 08:30:34;;;;;;;18.10;13.15;;;;;;;21.05;62.35;101384.50;5029221;28;20054;-61
2022/08/19 08:33:01;;;;;;;18.00;14.13;;;;;;;21.06;62.45;101388.03;5029108;28;20073;-62
2022/08/19 08:35:31;;;;;;;19.27;13.93;;;;;;;21.07;62.41;101392.41;5029471;28;20069;-61
2022/08/19 08:37:58;;;;;;;17.30;13.20;;;;;;;21.07;62.46;101403.34;5029328;28;20053;-61
2022/08/19 08:40:30;;;;;;;17.45;13.32;;;;;;;21.06;62.46;101410.72;5029243;28;20050;-61
2022/08/19 08:43:04;;;;;;;16.05;13.82;;;;;;;21.09;62.38;101403.88;5029385;28;20057;-61
2022/08/19 08:45:47;;;;;;;16.65;13.13;;;;;;;21.10;62.32;101414.53;5029620;28;20084;-61
2022/08/19 08:48:25;;;;;;;20.48;14.38;;;;;;;21.11;62.58;101407.97;5028455;28;20103;-61
2022/08/19 08:50:57;;;;;;;16.10;13.90;;;;;;;21.12;62.31;101411.53;5028987;28;20672;-61
2022/08/19 08:53:25;;;;;;;17.67;12.98;;;;;;;21.13;62.33;101403.06;5029232;28;20077;-61
2022/08/19 08:55:56;;;;;;;19.20;14.82;;;;;;;21.14;62.37;101392.94;5029005;28;20132;-61
2022/08/19 08:58:31;;;;;;;19.85;15.00;;;;;;;21.16;62.33;101392.66;5028497;28;20054;-61
2022/08/19 09:00:59;;;;;;;20.33;15.90;;;;;;;21.17;62.41;101400.59;5028886;28;20050;-61
2022/08/19 09:03:29;;;;;;;17.98;15.00;;;;;;;21.19;62.45;101395.66;5028771;28;20074;-61
2022/08/19 09:06:03;;;;;;;19.50;15.38;;;;;;;21.19;62.49;101397.56;5028868;28;20109;-61
2022/08/19 09:08:48;;;;;;;19.15;15.15;;;;;;;21.21;62.56;101400.84;5028443;28;20069;-61
2022/08/19 09:11:24;;;;;;;20.15;15.55;;;;;;;21.22;62.65;101407.97;5028826;28;20057;-61
2022/08/19 09:14:21;;;;;;;18.25;15.60;;;;;;;21.23;62.49;101406.88;5028126;28;20103;-61
2022/08/19 09:17:09;;;;;;;19.55;15.60;;;;;;;21.23;62.67;101415.09;5028497;28;20054;-60
2022/08/19 09:19:50;;;;;;;20.30;16.33;;;;;;;21.24;62.69;101413.97;5028015;28;20041;-61
2022/08/19 09:22:21;;;;;;;21.40;16.25;;;;;;;21.24;62.70;101414.81;5028619;28;20050;-61
2022/08/19 09:24:55;;;;;;;19.35;15.57;;;;;;;21.23;62.80;101412.34;5028498;28;20054;-61
2022/08/19 09:27:24;;;;;;;21.55;16.13;;;;;;;21.26;62.71;101411.78;5028362;28;20061;-60
2022/08/19 09:30:12;;;;;;;20.88;15.32;;;;;;;21.27;62.94;101422.44;5028180;28;20107;-61
2022/08/19 09:32:42;;;;;;;17.63;15.30;;;;;;;21.27;62.71;101422.44;5028625;28;20077;-60
2022/08/19 09:35:10;;;;;;;20.73;15.18;;;;;;;21.25;62.72;101416.44;5027783;28;20500;-61
2022/08/19 09:37:40;;;;;;;20.65;15.40;;;;;;;21.28;62.78;101417.78;5028000;28;20484;-61
2022/08/19 09:40:11;;;;;;;19.88;14.65;;;;;;;21.29;62.79;101420.25;5028329;28;20052;-61
2022/08/19 09:42:39;;;;;;;18.10;13.93;;;;;;;21.28;62.91;101429.56;5028246;28;20050;-60
2022/08/19 09:45:20;;;;;;;22.52;14.68;;;;;;;21.29;62.75;101428.47;5028102;28;20111;-61
2022/08/19 09:47:48;;;;;;;17.48;14.18;;;;;;;21.29;62.63;101424.91;5027703;28;20073;-61
2022/08/19 09:50:17;;;;;;;21.05;14.05;;;;;;;21.30;62.74;101427.34;5027608;28;20042;-60
2022/08/19 09:52:47;;;;;;;19.48;13.40;;;;;;;21.27;62.82;101421.63;5027927;28;20060;-61
2022/08/19 09:55:26;;;;;;;19.98;13.20;;;;;;;21.30;62.71;101424.63;5028030;28;20053;-61
2022/08/19 09:58:00;;;;;;;18.25;13.07;;;;;;;21.32;62.82;101427.91;5027933;28;20515;-61
2022/08/19 10:00:28;;;;;;;17.67;13.00;;;;;;;21.32;62.70;101427.91;5027527;28;20077;-61
2022/08/19 10:02:56;;;;;;;16.75;12.57;;;;;;;21.34;62.77;101430.34;5027683;28;20077;-61
2022/08/19 10:08:11;;;;;;;18.45;11.93;;;;;;;21.36;62.72;101439.91;5027237;28;20053;-60
2022/08/19 10:10:42;;;;;;;18.98;12.50;;;;;;;21.37;62.69;101433.34;5027519;28;20053;-61
2022/08/19 10:13:13;;;;;;;15.73;11.63;;;;;;;21.38;62.63;101431.44;5027490;28;20057;-60
2022/08/19 10:15:40;;;;;;;18.00;11.52;;;;;;;21.39;62.58;101428.41;5027455;28;20053;-60
2022/08/19 10:18:17;;;;;;;15.65;10.80;;;;;;;21.39;62.72;101422.94;5026907;28;20050;-60
2022/08/19 10:20:46;;;;;;;15.02;10.48;;;;;;;21.41;62.66;101430.88;5027419;28;20058;-60
2022/08/19 10:23:21;;;;;;;14.43;11.35;;;;;;;21.40;62.66;101432.78;5027221;28;20049;-60
2022/08/19 10:25:49;;;;;;;12.45;10.48;;;;;;;21.41;62.41;101434.41;5026567;28;20065;-60
2022/08/19 10:28:17;;;;;;;14.32;10.70;;;;;;;21.42;62.60;101429.78;5027324;28;20056;-61
2022/08/19 10:30:46;;;;;;;20.15;10.95;;;;;;;21.42;62.36;101429.78;5027197;28;20046;-61
2022/08/19 10:33:14;;;;;;;16.60;10.52;;;;;;;21.42;62.40;101433.31;5029263;28;20125;-62
2022/08/19 10:36:03;;;;;;;17.23;10.68;;;;;;;21.41;62.52;101434.41;5046891;28;20151;-61
2022/08/19 10:38:33;;;;;;;15.73;10.75;;;;;;;21.42;62.57;101429.78;5046475;28;20085;-61
2022/08/19 10:41:08;;;;;;;13.70;9.95;;;;;;;21.42;62.39;101435.25;5046880;28;20045;-61
2022/08/19 10:43:38;;;;;;;14.57;10.10;;;;;;;21.39;62.52;101424.84;5032588;28;20069;-61
2022/08/19 10:46:06;;;;;;;15.48;9.35;;;;;;;21.42;62.34;101430.59;5026825;28;20056;-61
2022/08/19 10:48:41;;;;;;;13.93;9.60;;;;;;;21.42;62.54;101422.38;5026340;28;20057;-61
2022/08/19 10:53:56;;;;;;;14.73;10.07;;;;;;;21.44;62.41;101419.38;5026771;28;20054;-61
2022/08/19 10:59:13;;;;;;;14.27;9.63;;;;;;;21.44;62.49;101408.44;5026691;28;20085;-61
2022/08/19 11:01:43;;;;;;;13.68;10.07;;;;;;;21.48;62.24;101420.44;5026745;28;20092;-61
2022/08/19 11:04:13;;;;;;;15.23;10.57;;;;;;;21.50;62.32;101412.78;5026179;28;20050;-61
2022/08/19 11:06:43;;;;;;;16.35;11.45;;;;;;;21.50;62.51;101410.03;5026479;28;20104;-61
2022/08/19 11:09:12;;;;;;;15.20;10.95;;;;;;;21.52;62.27;101413.31;5044491;28;20056;-61
2022/08/19 11:11:41;;;;;;;16.17;11.10;;;;;;;21.53;62.28;101408.66;5046299;28;20049;-61
2022/08/19 11:14:10;;;;;;;16.45;10.80;;;;;;;21.55;62.51;101401.00;5045090;28;20084;-61
2022/08/19 11:16:39;;;;;;;15.73;11.23;;;;;;;21.56;62.38;101408.09;5045914;28;20073;-61
2022/08/19 11:19:09;;;;;;;16.80;11.75;;;;;;;21.56;62.11;101402.63;5045247;28;20052;-61
2022/08/19 11:21:40;;;;;;;16.50;12.13;;;;;;;21.57;62.36;101402.34;5046227;28;20167;-61
2022/08/19 11:24:11;;;;;;;13.95;10.88;;;;;;;21.60;62.41;101407.25;5044895;28;20053;-61
2022/08/19 11:26:41;;;;;;;18.48;11.68;;;;;;;21.56;62.43;101400.72;5046047;28;20045;-62
2022/08/19 11:29:12;;;;;;;18.92;13.63;;;;;;;21.64;62.46;101397.38;5039990;28;20049;-61
2022/08/19 11:31:42;;;;;;;18.25;12.40;;;;;;;21.67;62.10;101404.22;5026379;28;20050;-61
2022/08/19 11:34:13;;;;;;;17.63;12.27;;;;;;;21.69;62.27;101397.34;5026037;28;20088;-61
2022/08/19 11:36:43;;;;;;;17.83;12.13;;;;;;;21.69;62.11;101393.81;5045062;28;20049;-61
2022/08/19 11:39:13;;;;;;;16.77;12.13;;;;;;;21.70;62.26;101390.78;5045891;28;20056;-61
2022/08/19 11:41:43;;;;;;;19.92;12.32;;;;;;;21.72;62.13;101391.31;5045792;28;20407;-61
2022/08/19 11:44:11;;;;;;;15.10;12.32;;;;;;;21.74;62.31;101396.50;5027391;28;20074;-61
2022/08/19 11:46:39;;;;;;;15.07;12.63;;;;;;;21.72;62.42;101396.78;5025854;28;20077;-61
2022/08/19 11:49:09;;;;;;;18.02;12.45;;;;;;;21.76;62.28;101394.31;5025636;28;20077;-61
2022/08/19 11:51:42;;;;;;;20.85;13.93;;;;;;;21.77;62.34;101388.56;5031140;28;20140;-61
2022/08/19 11:54:12;;;;;;;17.75;13.70;;;;;;;21.80;62.13;101386.34;5045686;28;20081;-61
2022/08/19 11:56:42;;;;;;;18.83;13.43;;;;;;;21.81;62.07;101385.25;5045794;28;20088;-61
2022/08/19 11:59:10;;;;;;;19.77;13.80;;;;;;;21.83;62.23;101385.78;5045548;28;20073;-61